createdAt,value
2018-02-24T00:01:01.058Z,70.75
2018-02-24T00:03:28.756Z,70.80
2018-02-24T00:05:56.555Z,70.81
2018-02-24T00:08:24.249Z,70.93
2018-02-24T00:10:51.959Z,70.97
2018-02-24T00:13:19.751Z,70.90
2018-02-24T00:15:47.477Z,70.85
2018-02-24T00:18:15.170Z,70.79
2018-02-24T00:20:42.908Z,70.80
2018-02-24T00:23:10.610Z,70.85
2018-02-24T00:25:38.356Z,70.86
2018-02-24T00:28:06.054Z,70.95
2018-02-24T00:30:33.800Z,71.03
2018-02-24T00:33:01.521Z,71.20
2018-02-24T00:35:29.241Z,71.33
2018-02-24T00:37:56.957Z,71.13
2018-02-24T00:40:24.656Z,71.12
2018-02-24T00:42:52.373Z,71.13
2018-02-24T00:45:20.101Z,71.18
2018-02-24T00:47:47.818Z,71.19
2018-02-24T00:50:15.615Z,71.29
2018-02-24T00:52:43.388Z,71.28
2018-02-24T00:55:11.084Z,71.27
2018-02-24T00:57:38.824Z,71.31
2018-02-24T01:00:06.513Z,71.29
2018-02-24T01:02:34.212Z,71.31
2018-02-24T01:05:02.000Z,71.48
2018-02-24T01:07:29.693Z,71.40
2018-02-24T01:09:57.417Z,71.46
2018-02-24T01:12:25.113Z,71.47
2018-02-24T01:14:52.841Z,71.57
2018-02-24T01:17:20.523Z,71.66
2018-02-24T01:19:48.284Z,71.72
2018-02-24T01:22:16.052Z,71.74
2018-02-24T01:24:43.768Z,71.79
2018-02-24T01:27:11.484Z,71.69
2018-02-24T01:29:39.222Z,71.65
2018-02-24T01:32:06.922Z,71.68
2018-02-24T01:34:34.685Z,71.67
2018-02-24T01:37:02.409Z,71.60
2018-02-24T01:39:30.098Z,71.43
2018-02-24T01:41:57.869Z,71.41
2018-02-24T01:44:25.565Z,71.55
2018-02-24T01:46:53.280Z,71.54
2018-02-24T01:49:21.073Z,71.64
2018-02-24T01:51:48.900Z,71.75
2018-02-24T01:54:16.593Z,71.81
2018-02-24T01:56:44.355Z,71.95
2018-02-24T01:59:12.141Z,72.07
2018-02-24T02:01:39.901Z,72.17
2018-02-24T02:04:07.601Z,72.34
2018-02-24T02:06:35.419Z,72.75
2018-02-24T02:09:03.188Z,73.17
2018-02-24T02:11:30.937Z,73.58
2018-02-24T02:13:58.628Z,73.87
2018-02-24T02:16:26.330Z,74.07
2018-02-24T02:18:54.143Z,74.27
2018-02-24T02:21:21.922Z,74.24
2018-02-24T02:23:49.645Z,74.57
2018-02-24T02:26:17.333Z,74.87
2018-02-24T02:28:45.077Z,75.09
2018-02-24T02:31:12.784Z,75.15
2018-02-24T02:33:40.505Z,75.35
2018-02-24T02:36:08.298Z,75.47
2018-02-24T02:38:36.019Z,75.55
2018-02-24T02:41:03.735Z,75.60
2018-02-24T02:43:31.492Z,75.78
2018-02-24T02:45:59.262Z,75.92
2018-02-24T02:48:27.025Z,76.04
2018-02-24T02:50:54.745Z,76.25
2018-02-24T02:53:22.434Z,76.27
2018-02-24T02:55:50.149Z,76.29
2018-02-24T02:58:17.836Z,76.24
2018-02-24T03:00:45.544Z,76.37
2018-02-24T03:03:13.304Z,76.44
2018-02-24T03:05:41.073Z,76.27
2018-02-24T03:08:08.759Z,76.39
2018-02-24T03:10:36.492Z,76.23
2018-02-24T03:13:04.172Z,76.32
2018-02-24T03:15:31.929Z,76.19
2018-02-24T03:17:59.631Z,76.11
2018-02-24T03:20:27.355Z,75.88
2018-02-24T03:22:55.089Z,75.31
2018-02-24T03:25:22.768Z,75.08
2018-02-24T03:27:50.550Z,74.21
2018-02-24T03:30:18.313Z,73.87
2018-02-24T03:32:46.077Z,73.49
2018-02-24T03:35:13.844Z,73.33
2018-02-24T03:37:41.603Z,73.29
2018-02-24T03:40:09.304Z,72.54
2018-02-24T03:42:36.988Z,72.01
2018-02-24T03:45:04.695Z,71.73
2018-02-24T03:47:32.380Z,71.41
2018-02-24T03:50:00.089Z,71.05
2018-02-24T03:52:27.777Z,70.85
2018-02-24T03:54:55.552Z,69.99
2018-02-24T03:57:23.236Z,69.16
2018-02-24T03:59:50.984Z,69.18
2018-02-24T04:02:18.671Z,69.00
2018-02-24T04:04:46.384Z,68.78
2018-02-24T04:07:14.065Z,68.37
2018-02-24T04:09:41.744Z,68.39
2018-02-24T04:12:09.444Z,67.63
2018-02-24T04:14:37.120Z,67.33
2018-02-24T04:17:04.816Z,64.99
2018-02-24T04:19:32.492Z,64.81
2018-02-24T04:22:00.192Z,64.26
2018-02-24T04:24:27.877Z,64.24
2018-02-24T04:26:55.584Z,64.11
2018-02-24T04:29:23.349Z,63.70
2018-02-24T04:31:51.052Z,64.01
2018-02-24T04:34:18.732Z,62.98
2018-02-24T04:36:46.434Z,62.18
2018-02-24T04:39:14.208Z,61.63
2018-02-24T04:41:41.978Z,61.05
2018-02-24T04:44:09.656Z,60.90
2018-02-24T04:46:37.327Z,60.92
2018-02-24T04:49:05.032Z,60.07
2018-02-24T04:51:32.708Z,59.85
2018-02-24T04:54:00.408Z,59.67
2018-02-24T04:56:28.084Z,60.15
2018-02-24T04:58:55.817Z,58.51
2018-02-24T05:01:23.584Z,58.08
2018-02-24T05:03:51.445Z,57.96
2018-02-24T05:06:19.123Z,57.88
2018-02-24T05:08:46.875Z,57.29
2018-02-24T05:11:14.557Z,57.65
2018-02-24T05:13:42.313Z,56.72
2018-02-24T05:16:10.076Z,56.90
2018-02-24T05:18:37.841Z,56.20
2018-02-24T05:21:05.540Z,56.13
2018-02-24T05:23:33.272Z,56.12
2018-02-24T05:26:01.033Z,56.46
2018-02-24T05:28:28.764Z,56.60
2018-02-24T05:30:56.565Z,56.39
2018-02-24T05:33:24.256Z,56.17
2018-02-24T05:35:51.987Z,56.48
2018-02-24T05:38:19.668Z,56.33
2018-02-24T05:40:47.382Z,56.41
2018-02-24T05:43:15.084Z,56.55
2018-02-24T05:45:42.848Z,56.42
2018-02-24T05:48:10.612Z,56.47
2018-02-24T05:50:38.380Z,56.85
2018-02-24T05:53:06.056Z,56.67
2018-02-24T05:55:33.812Z,56.56
2018-02-24T05:58:01.524Z,56.26
2018-02-24T06:00:29.208Z,56.20
2018-02-24T06:02:56.999Z,56.21
2018-02-24T06:05:24.675Z,55.96
2018-02-24T06:07:52.376Z,56.13
2018-02-24T06:10:20.061Z,56.26
2018-02-24T06:12:47.885Z,56.35
2018-02-24T06:15:15.552Z,56.88
2018-02-24T06:17:43.252Z,57.20
2018-02-24T06:20:10.931Z,57.63
2018-02-24T06:22:38.636Z,58.01
2018-02-24T06:25:06.328Z,58.26
2018-02-24T06:27:34.048Z,58.68
2018-02-24T06:30:01.804Z,59.00
2018-02-24T06:32:29.509Z,59.15
2018-02-24T06:34:57.192Z,59.39
2018-02-24T06:37:24.912Z,59.50
2018-02-24T06:39:52.592Z,59.67
2018-02-24T06:42:20.273Z,59.69
2018-02-24T06:44:47.972Z,59.74
2018-02-24T06:47:15.758Z,59.93
2018-02-24T06:49:43.456Z,60.05
2018-02-24T06:52:11.140Z,60.58
2018-02-24T06:54:38.890Z,60.57
2018-02-24T06:57:06.567Z,60.49
2018-02-24T06:59:34.385Z,60.67
2018-02-24T07:02:02.073Z,60.88
2018-02-24T07:04:29.813Z,60.93
2018-02-24T07:06:57.574Z,60.74
2018-02-24T07:09:25.272Z,60.97
2018-02-24T07:11:52.956Z,61.51
2018-02-24T07:14:20.684Z,62.10
2018-02-24T07:16:48.432Z,62.37
2018-02-24T07:19:16.196Z,61.52
2018-02-24T07:21:43.960Z,61.20
2018-02-24T07:24:11.769Z,61.42
2018-02-24T07:26:39.705Z,60.89
2018-02-24T07:29:07.379Z,60.34
2018-02-24T07:31:35.127Z,59.86
2018-02-24T07:34:02.894Z,59.94
2018-02-24T07:36:30.604Z,60.27
2018-02-24T07:38:58.320Z,60.40
2018-02-24T07:41:26.084Z,60.99
2018-02-24T07:43:53.769Z,62.65
2018-02-24T07:46:21.613Z,62.82
2018-02-24T07:48:49.292Z,62.81
2018-02-24T07:51:17.048Z,61.52
2018-02-24T07:53:44.756Z,61.47
2018-02-24T07:56:12.444Z,61.11
2018-02-24T07:58:40.240Z,58.09
2018-02-24T08:01:07.920Z,58.20
2018-02-24T08:03:35.625Z,58.11
2018-02-24T08:06:03.317Z,56.38
2018-02-24T08:08:31.099Z,54.34
2018-02-24T08:10:58.868Z,53.50
2018-02-24T08:13:26.568Z,53.29
2018-02-24T08:15:54.246Z,53.76
2018-02-24T08:18:21.953Z,53.33
2018-02-24T08:20:49.720Z,52.83
2018-02-24T08:23:17.457Z,52.88
2018-02-24T08:25:45.134Z,52.89
2018-02-24T08:28:12.808Z,52.95
2018-02-24T08:30:40.524Z,53.39
2018-02-24T08:33:08.248Z,55.19
2018-02-24T08:35:35.948Z,57.07
2018-02-24T08:38:03.624Z,58.57
2018-02-24T08:40:31.321Z,59.92
2018-02-24T08:42:59.012Z,60.04
2018-02-24T08:45:26.760Z,59.77
2018-02-24T08:47:54.530Z,57.81
2018-02-24T08:50:22.256Z,56.59
2018-02-24T08:52:50.015Z,55.98
2018-02-24T08:55:17.721Z,56.23
2018-02-24T08:57:45.416Z,55.76
2018-02-24T09:00:13.152Z,56.24
2018-02-24T09:02:40.856Z,56.75
2018-02-24T09:05:08.541Z,55.79
2018-02-24T09:07:36.344Z,54.79
2018-02-24T09:10:04.025Z,54.51
2018-02-24T09:12:31.771Z,50.66
2018-02-24T09:14:59.547Z,50.31
2018-02-24T09:17:27.304Z,49.56
2018-02-24T09:19:54.979Z,47.35
2018-02-24T09:22:22.704Z,46.69
2018-02-24T09:24:50.379Z,45.25
2018-02-24T09:27:18.085Z,45.56
2018-02-24T09:29:45.760Z,45.52
2018-02-24T09:32:13.488Z,45.14
2018-02-24T09:34:41.163Z,45.08
2018-02-24T09:37:08.917Z,45.01
2018-02-24T09:39:36.596Z,44.84
2018-02-24T09:42:04.317Z,44.45
2018-02-24T09:44:32.008Z,44.75
2018-02-24T09:46:59.781Z,45.19
2018-02-24T09:49:27.539Z,45.87
2018-02-24T09:51:55.137Z,45.53
2018-02-24T09:54:22.902Z,45.26
2018-02-24T09:56:50.582Z,48.77
2018-02-24T09:59:18.396Z,51.89
2018-02-24T10:01:46.168Z,54.48
2018-02-24T10:04:13.864Z,55.18
2018-02-24T10:06:41.465Z,55.59
2018-02-24T10:09:09.164Z,54.66
2018-02-24T10:11:36.920Z,54.53
2018-02-24T10:14:04.624Z,54.70
2018-02-24T10:16:32.349Z,57.01
2018-02-24T10:19:00.777Z,59.03
2018-02-24T10:21:28.433Z,61.25
2018-02-24T10:23:56.112Z,62.68
2018-02-24T10:26:23.818Z,63.29
2018-02-24T10:28:51.508Z,63.46
2018-02-24T10:31:19.207Z,62.69
2018-02-24T10:33:46.896Z,61.13
2018-02-24T10:36:14.677Z,60.66
2018-02-24T10:38:42.444Z,60.70
2018-02-24T10:41:10.148Z,60.77
2018-02-24T10:43:37.837Z,60.79
2018-02-24T10:46:05.537Z,61.29
2018-02-24T10:48:33.347Z,60.71
2018-02-24T10:51:01.036Z,59.92
2018-02-24T10:53:28.736Z,60.06
2018-02-24T10:55:56.460Z,59.87
2018-02-24T10:58:24.155Z,59.52
2018-02-24T11:00:51.851Z,60.31
2018-02-24T11:03:19.552Z,59.46
2018-02-24T11:05:47.269Z,59.23
2018-02-24T11:08:14.978Z,58.71
2018-02-24T11:10:42.784Z,58.43
2018-02-24T11:13:10.484Z,59.08
2018-02-24T11:15:38.169Z,61.86
2018-02-24T11:18:05.872Z,66.14
2018-02-24T11:20:33.544Z,66.23
2018-02-24T11:23:01.272Z,65.69
2018-02-24T11:25:29.070Z,66.48
2018-02-24T11:27:56.788Z,66.43
2018-02-24T11:30:24.501Z,65.74
2018-02-24T11:32:52.208Z,64.36
2018-02-24T11:35:19.929Z,64.44
2018-02-24T11:37:47.694Z,64.04
2018-02-24T11:40:15.401Z,63.28
2018-02-24T11:42:43.084Z,62.09
2018-02-24T11:45:10.928Z,61.12
2018-02-24T11:47:38.596Z,59.34
2018-02-24T11:50:06.367Z,59.51
2018-02-24T11:52:34.087Z,57.68
2018-02-24T11:55:01.784Z,57.21
2018-02-24T11:57:29.465Z,57.41
2018-02-24T11:59:57.171Z,56.41
2018-02-24T12:02:24.898Z,56.51
2018-02-24T12:04:52.604Z,56.41
2018-02-24T12:07:20.280Z,54.73
2018-02-24T12:09:47.981Z,56.43
2018-02-24T12:12:15.576Z,55.37
2018-02-24T12:14:43.296Z,53.49
2018-02-24T12:17:10.896Z,53.22
2018-02-24T12:19:38.507Z,53.81
2018-02-24T12:22:06.144Z,55.52
2018-02-24T12:24:33.749Z,55.95
2018-02-24T12:27:01.468Z,56.94
2018-02-24T12:29:29.137Z,57.13
2018-02-24T12:31:56.797Z,57.56
2018-02-24T12:34:24.395Z,57.21
2018-02-24T12:36:52.021Z,57.36
2018-02-24T12:39:19.625Z,55.76
2018-02-24T12:41:47.366Z,54.87
2018-02-24T12:44:14.965Z,54.43
2018-02-24T12:46:42.840Z,50.77
2018-02-24T12:49:10.413Z,49.68
2018-02-24T12:51:38.145Z,49.86
2018-02-24T12:54:05.848Z,49.81
2018-02-24T12:56:33.632Z,46.81
2018-02-24T12:59:01.340Z,46.35
2018-02-24T13:01:29.064Z,45.86
2018-02-24T13:03:56.723Z,44.14
2018-02-24T13:06:24.392Z,44.88
2018-02-24T13:08:52.101Z,44.29
2018-02-24T13:11:19.834Z,43.79
2018-02-24T13:13:47.584Z,43.81
2018-02-24T13:16:15.348Z,44.75
2018-02-24T13:18:43.060Z,45.10
2018-02-24T13:21:10.744Z,45.10
2018-02-24T13:23:38.448Z,44.71
2018-02-24T13:26:06.127Z,44.13
2018-02-24T13:28:33.769Z,44.94
2018-02-24T13:31:01.449Z,44.11
2018-02-24T13:33:29.156Z,44.60
2018-02-24T13:35:56.760Z,44.14
2018-02-24T13:38:24.464Z,44.14
2018-02-24T13:40:52.139Z,44.08
2018-02-24T13:43:19.953Z,43.65
2018-02-24T13:45:47.723Z,42.46
2018-02-24T13:48:15.511Z,42.26
2018-02-24T13:50:43.218Z,42.95
2018-02-24T13:53:10.900Z,43.27
2018-02-24T13:55:38.603Z,42.34
2018-02-24T13:58:06.285Z,43.09
2018-02-24T14:00:33.989Z,43.99
2018-02-24T14:03:01.846Z,44.75
2018-02-24T14:05:29.536Z,44.73
2018-02-24T14:07:57.212Z,44.75
2018-02-24T14:10:24.871Z,44.97
2018-02-24T14:12:52.632Z,42.13
2018-02-24T14:15:20.398Z,41.49
2018-02-24T14:17:48.164Z,40.29
2018-02-24T14:20:15.864Z,40.40
2018-02-24T14:22:43.596Z,41.07
2018-02-24T14:25:11.335Z,41.96
2018-02-24T14:27:39.014Z,41.84
2018-02-24T14:30:06.715Z,42.94
2018-02-24T14:32:34.423Z,42.54
2018-02-24T14:35:02.129Z,43.08
2018-02-24T14:37:29.812Z,42.92
2018-02-24T14:39:57.496Z,43.26
2018-02-24T14:42:25.210Z,42.69
2018-02-24T14:44:52.892Z,42.17
2018-02-24T14:47:20.645Z,43.18
2018-02-24T14:49:48.320Z,43.71
2018-02-24T14:52:17.405Z,44.49
2018-02-24T14:54:45.092Z,44.93
2018-02-24T14:57:12.824Z,44.63
2018-02-24T14:59:40.509Z,44.47
2018-02-24T15:02:08.208Z,42.17
2018-02-24T15:04:35.911Z,42.94
2018-02-24T15:07:03.623Z,43.90
2018-02-24T15:09:31.307Z,44.74
2018-02-24T15:11:59.108Z,44.92
2018-02-24T15:14:26.793Z,45.21
2018-02-24T15:16:54.476Z,45.38
2018-02-24T15:19:22.187Z,45.69
2018-02-24T15:21:49.973Z,45.88
2018-02-24T15:24:17.737Z,46.34
2018-02-24T15:26:45.504Z,46.81
2018-02-24T15:29:13.213Z,47.13
2018-02-24T15:31:40.896Z,47.25
2018-02-24T15:34:08.596Z,47.79
2018-02-24T15:36:36.280Z,47.89
2018-02-24T15:39:03.989Z,47.96
2018-02-24T15:41:31.672Z,47.73
2018-02-24T15:43:59.376Z,47.50
2018-02-24T15:46:27.089Z,47.73
2018-02-24T15:48:54.892Z,47.62
2018-02-24T15:51:22.636Z,48.20
2018-02-24T15:53:50.313Z,49.03
2018-02-24T15:56:18.071Z,48.97
2018-02-24T15:58:45.840Z,48.83
2018-02-24T16:01:13.560Z,49.25
2018-02-24T16:03:41.249Z,49.48
2018-02-24T16:06:08.949Z,49.79
2018-02-24T16:08:37.012Z,50.26
2018-02-24T16:11:04.717Z,50.78
2018-02-24T16:13:32.430Z,51.15
2018-02-24T16:16:00.133Z,51.56
2018-02-24T16:18:27.816Z,51.59
2018-02-24T16:20:55.517Z,51.87
2018-02-24T16:23:23.296Z,52.23
2018-02-24T16:25:51.033Z,52.74
2018-02-24T16:28:18.712Z,53.58
2018-02-24T16:30:46.491Z,53.97
2018-02-24T16:33:14.192Z,54.64
2018-02-24T16:35:41.920Z,54.25
2018-02-24T16:38:09.679Z,54.02
2018-02-24T16:40:37.460Z,53.92
2018-02-24T16:43:05.211Z,53.76
2018-02-24T16:45:32.980Z,53.83
2018-02-24T16:48:00.744Z,53.80
2018-02-24T16:50:28.516Z,53.39
2018-02-24T16:52:57.197Z,53.44
2018-02-24T16:55:25.128Z,53.42
2018-02-24T16:57:52.839Z,53.70
2018-02-24T17:00:20.600Z,53.58
2018-02-24T17:02:48.368Z,53.64
2018-02-24T17:05:16.134Z,53.55
2018-02-24T17:07:43.904Z,53.20
2018-02-24T17:10:11.661Z,52.89
2018-02-24T17:12:39.440Z,52.37
2018-02-24T17:15:07.136Z,51.70
2018-02-24T17:17:34.856Z,51.29
2018-02-24T17:20:02.562Z,51.18
2018-02-24T17:22:30.280Z,51.23
2018-02-24T17:24:58.029Z,51.26
2018-02-24T17:27:25.816Z,51.54
2018-02-24T17:29:53.668Z,51.56
2018-02-24T17:32:21.351Z,51.67
2018-02-24T17:34:49.050Z,51.77
2018-02-24T17:37:16.733Z,51.64
2018-02-24T17:39:44.539Z,51.84
2018-02-24T17:42:12.220Z,51.79
2018-02-24T17:44:39.932Z,52.04
2018-02-24T17:47:07.643Z,52.04
2018-02-24T17:49:35.365Z,52.27
2018-02-24T17:52:03.068Z,52.39
2018-02-24T17:54:30.760Z,52.63
2018-02-24T17:56:58.470Z,52.76
2018-02-24T17:59:26.255Z,52.94
2018-02-24T18:01:53.956Z,53.13
2018-02-24T18:04:21.640Z,53.30
2018-02-24T18:06:49.340Z,53.43
2018-02-24T18:09:17.020Z,53.67
2018-02-24T18:11:44.784Z,53.97
2018-02-24T18:14:12.548Z,54.03
2018-02-24T18:16:40.313Z,54.17
2018-02-24T18:19:07.991Z,54.19
2018-02-24T18:21:35.736Z,54.22
2018-02-24T18:24:03.504Z,54.36
2018-02-24T18:26:31.206Z,54.62
2018-02-24T18:28:58.888Z,54.70
2018-02-24T18:31:26.596Z,54.89
2018-02-24T18:33:54.280Z,55.18
2018-02-24T18:36:21.984Z,55.13
2018-02-24T18:38:49.661Z,55.14
2018-02-24T18:41:17.384Z,55.26
2018-02-24T18:43:45.121Z,55.28
2018-02-24T18:46:12.813Z,55.49
2018-02-24T18:48:40.521Z,55.63
2018-02-24T18:51:08.317Z,55.67
2018-02-24T18:53:36.044Z,55.64
2018-02-24T18:56:03.725Z,55.85
2018-02-24T18:58:31.424Z,55.96
2018-02-24T19:00:59.171Z,55.94
2018-02-24T19:03:26.884Z,56.07
2018-02-24T19:05:54.607Z,56.02
2018-02-24T19:08:22.314Z,56.10
2018-02-24T19:10:50.000Z,56.24
2018-02-24T19:13:17.704Z,56.42
2018-02-24T19:15:45.393Z,56.50
2018-02-24T19:18:13.126Z,56.52
2018-02-24T19:20:40.829Z,56.88
2018-02-24T19:23:08.504Z,56.89
2018-02-24T19:25:36.209Z,56.91
2018-02-24T19:28:03.888Z,57.02
2018-02-24T19:30:31.592Z,57.14
2018-02-24T19:32:59.312Z,57.20
2018-02-24T19:35:27.016Z,57.24
2018-02-24T19:37:54.740Z,57.35
2018-02-24T19:40:22.444Z,57.39
2018-02-24T19:42:50.127Z,57.54
2018-02-24T19:45:17.824Z,57.62
2018-02-24T19:47:45.509Z,57.55
2018-02-24T19:50:13.260Z,57.60
2018-02-24T19:52:40.948Z,57.72
2018-02-24T19:55:08.688Z,57.86
2018-02-24T19:57:36.448Z,57.99
2018-02-24T20:00:04.221Z,58.08
2018-02-24T20:02:31.934Z,58.13
2018-02-24T20:04:59.608Z,57.95
2018-02-24T20:07:27.413Z,58.05
2018-02-24T20:09:55.088Z,58.11
2018-02-24T20:12:22.792Z,58.32
2018-02-24T20:14:50.473Z,58.39
2018-02-24T20:17:18.273Z,58.39
2018-02-24T20:19:45.965Z,58.46
2018-02-24T20:22:13.668Z,58.48
2018-02-24T20:24:41.359Z,58.41
2018-02-24T20:27:09.133Z,58.52
2018-02-24T20:29:36.892Z,58.53
2018-02-24T20:32:04.572Z,58.50
2018-02-24T20:34:32.321Z,58.47
2018-02-24T20:37:00.084Z,58.46
2018-02-24T20:39:27.789Z,58.54
2018-02-24T20:41:55.512Z,58.38
2018-02-24T20:44:23.286Z,58.33
2018-02-24T20:46:51.053Z,58.16
2018-02-24T20:49:18.757Z,58.07
2018-02-24T20:51:46.574Z,58.27
2018-02-24T20:54:14.344Z,58.36
2018-02-24T20:56:42.036Z,58.52
2018-02-24T20:59:09.779Z,58.12
2018-02-24T21:01:37.493Z,58.09
2018-02-24T21:04:05.176Z,58.03
2018-02-24T21:06:32.875Z,58.01
2018-02-24T21:09:00.557Z,58.04
2018-02-24T21:11:28.260Z,57.90
2018-02-24T21:13:55.940Z,57.69
2018-02-24T21:16:23.640Z,57.47
2018-02-24T21:18:51.317Z,57.34
2018-02-24T21:21:19.025Z,57.21
2018-02-24T21:23:46.814Z,57.45
2018-02-24T21:26:14.527Z,57.26
2018-02-24T21:28:42.344Z,57.12
2018-02-24T21:31:10.113Z,57.07
2018-02-24T21:33:37.871Z,57.08
2018-02-24T21:36:05.553Z,57.09
2018-02-24T21:38:33.257Z,57.12
2018-02-24T21:41:00.963Z,57.01
2018-02-24T21:43:28.669Z,57.12
2018-02-24T21:45:56.392Z,57.15
2018-02-24T21:48:24.160Z,57.12
2018-02-24T21:50:51.873Z,57.09
2018-02-24T21:53:19.583Z,57.19
2018-02-24T21:55:47.257Z,57.22
2018-02-24T21:58:14.952Z,57.30
2018-02-24T22:00:42.633Z,57.35
2018-02-24T22:03:10.338Z,57.36
2018-02-24T22:05:38.020Z,57.43
2018-02-24T22:08:05.772Z,57.42
2018-02-24T22:10:33.536Z,57.73
2018-02-24T22:13:01.220Z,57.55
2018-02-24T22:15:28.932Z,57.42
2018-02-24T22:17:56.608Z,57.47
2018-02-24T22:20:24.396Z,57.32
2018-02-24T22:22:52.101Z,57.30
2018-02-24T22:25:19.808Z,57.61
2018-02-24T22:27:47.484Z,57.75
2018-02-24T22:30:15.196Z,57.98
2018-02-24T22:32:42.876Z,58.24
2018-02-24T22:35:10.644Z,58.45
2018-02-24T22:37:38.324Z,58.79
2018-02-24T22:40:06.104Z,58.67
2018-02-24T22:42:33.881Z,58.59
2018-02-24T22:45:01.571Z,58.75
2018-02-24T22:47:34.956Z,58.77
2018-02-24T22:50:02.697Z,58.88
2018-02-24T22:52:30.462Z,59.26
2018-02-24T22:54:58.140Z,59.00
2018-02-24T22:57:25.840Z,58.87
2018-02-24T22:59:53.552Z,58.83
2018-02-24T23:02:21.251Z,58.68
2018-02-24T23:04:48.983Z,59.00
2018-02-24T23:07:16.685Z,59.28
2018-02-24T23:09:44.373Z,59.52
2018-02-24T23:12:12.160Z,59.82
2018-02-24T23:14:39.843Z,60.08
2018-02-24T23:17:07.527Z,60.23
2018-02-24T23:19:35.273Z,60.12
2018-02-24T23:22:02.953Z,60.53
2018-02-24T23:24:30.657Z,60.96
2018-02-24T23:26:58.340Z,61.29
2018-02-24T23:29:26.042Z,61.61
2018-02-24T23:31:53.788Z,61.97
2018-02-24T23:34:21.497Z,62.43
2018-02-24T23:36:49.220Z,62.63
2018-02-24T23:39:16.896Z,62.48
2018-02-24T23:41:44.603Z,62.68
2018-02-24T23:44:12.280Z,62.61
2018-02-24T23:46:39.980Z,62.43
2018-02-24T23:49:07.656Z,61.77
2018-02-24T23:51:35.399Z,61.59
2018-02-24T23:54:03.168Z,61.55
2018-02-24T23:56:30.873Z,61.45
2018-02-24T23:58:58.548Z,61.60
